Time;durP1;ratioP1;P1;durP2;ratioP2;P2;SDS_P1;SDS_P2;PMS_P1;PMS_P2;Temp;Humidity;BMP_temperature;BMP_pressure;BME280_temperature;BME280_humidity;BME280_pressure;Samples;Min_cycle;Max_cycle;Signal;HPM_P1;HPM_P2
2023/08/24 00:00:04;;;;;;;7.40;6.03;;;;;;;19.92;65.89;101214.66;690511;28;1871;-84
2023/08/24 00:00:27;;;;;;;8.77;6.00;;;;;;;19.78;65.92;101184.72;685073;28;1280;-85
2023/08/24 00:00:47;;;;;;;10.93;7.05;;;;;;;19.81;66.00;101200.56;688134;28;1093;-84
2023/08/24 00:01:09;;;;;;;11.00;7.47;;;;;;;19.83;65.92;101201.44;685321;28;1667;-84
2023/08/24 00:01:30;;;;;;;9.80;7.40;;;;;;;19.87;65.89;101211.16;688084;28;1113;-85
2023/08/24 00:01:51;;;;;;;8.85;6.93;;;;;;;19.83;65.95;101209.38;681807;28;1197;-84
2023/08/24 00:02:12;;;;;;;9.45;6.90;;;;;;;19.75;65.83;101200.59;682713;28;1541;-85
2023/08/24 00:02:33;;;;;;;9.15;6.95;;;;;;;19.72;65.76;101194.41;688054;28;1045;-84
2023/08/24 00:02:53;;;;;;;8.73;6.88;;;;;;;19.83;65.81;101220.88;684984;28;1273;-85
2023/08/24 00:03:14;;;;;;;7.50;6.60;;;;;;;19.62;65.75;101181.22;682841;28;1188;-85
2023/08/24 00:03:34;;;;;;;8.07;6.53;;;;;;;19.76;65.74;101207.63;682585;28;1447;-85
2023/08/24 00:03:55;;;;;;;8.15;6.30;;;;;;;19.76;65.79;101207.63;682778;28;1170;-85
2023/08/24 00:04:16;;;;;;;8.27;6.30;;;;;;;19.73;65.74;101214.72;682754;29;1166;-85
2023/08/24 00:04:37;;;;;;;8.23;6.50;;;;;;;19.71;65.88;101203.25;681436;28;1863;-85
2023/08/24 00:04:57;;;;;;;8.40;6.45;;;;;;;19.74;65.85;101210.31;681234;29;1436;-85
2023/08/24 00:05:18;;;;;;;8.87;6.70;;;;;;;19.79;65.71;101216.44;688098;28;998;-85
2023/08/24 00:05:42;;;;;;;10.73;6.53;;;;;;;19.69;65.64;101202.38;689977;28;1637;-85
2023/08/24 00:06:03;;;;;;;10.70;6.30;;;;;;;19.73;65.58;101209.41;685202;28;1292;-85
2023/08/24 00:06:23;;;;;;;10.90;6.10;;;;;;;19.58;65.57;101188.28;682568;29;1336;-85
2023/08/24 00:06:44;;;;;;;9.67;6.10;;;;;;;19.66;65.75;101201.50;680788;29;1528;-85
2023/08/24 00:07:04;;;;;;;11.90;6.57;;;;;;;19.67;65.72;101209.44;682700;28;1110;-85
2023/08/24 00:07:25;;;;;;;10.45;6.40;;;;;;;19.69;65.72;101210.31;685380;28;1345;-84
2023/08/24 00:07:48;;;;;;;9.33;6.50;;;;;;;19.65;65.58;101199.72;684454;28;1430;-85
2023/08/24 00:08:09;;;;;;;8.10;6.70;;;;;;;19.65;65.73;101200.63;680429;29;1213;-85
2023/08/24 00:08:29;;;;;;;8.85;6.65;;;;;;;19.56;65.61;101196.22;680040;29;1169;-85
2023/08/24 00:08:50;;;;;;;9.18;6.40;;;;;;;19.64;65.54;101212.09;685041;28;1980;-85
2023/08/24 00:09:10;;;;;;;8.53;6.10;;;;;;;19.57;65.73;101199.75;688334;28;1063;-85
2023/08/24 00:09:31;;;;;;;8.80;6.60;;;;;;;19.69;65.67;101223.56;683002;28;1306;-84
2023/08/24 00:09:53;;;;;;;8.27;6.68;;;;;;;19.45;65.73;101185.69;685864;28;1184;-85
2023/08/24 00:10:13;;;;;;;8.68;6.80;;;;;;;19.57;65.67;101202.41;689139;28;1047;-85
2023/08/24 00:10:35;;;;;;;8.30;6.40;;;;;;;19.51;65.82;101192.72;684972;28;1241;-85
2023/08/24 00:10:56;;;;;;;9.52;6.57;;;;;;;19.62;65.83;101216.53;687305;28;1277;-85
2023/08/24 00:11:17;;;;;;;9.00;6.20;;;;;;;19.50;65.80;101195.38;688062;28;1103;-85
2023/08/24 00:11:37;;;;;;;8.57;6.60;;;;;;;19.48;66.14;101202.44;683966;28;1264;-85
2023/08/24 00:11:58;;;;;;;8.43;6.40;;;;;;;19.41;66.27;101185.66;682876;28;1177;-85
2023/08/24 00:12:19;;;;;;;8.80;6.88;;;;;;;19.35;66.27;101181.28;682287;28;1648;-84
2023/08/24 00:12:41;;;;;;;9.18;7.03;;;;;;;19.36;66.47;101179.53;682636;28;1202;-85
2023/08/24 00:13:02;;;;;;;8.27;7.18;;;;;;;19.47;66.75;101204.19;684610;28;1373;-85
2023/08/24 00:13:22;;;;;;;10.23;7.50;;;;;;;19.42;66.59;101187.47;682839;28;998;-85
2023/08/24 00:13:49;;;;;;;12.05;7.32;;;;;;;19.48;66.72;101202.44;684468;28;1207;-85
2023/08/24 00:14:10;;;;;;;13.90;7.05;;;;;;;19.52;66.77;101210.38;690684;28;1629;-85
2023/08/24 00:14:30;;;;;;;14.20;7.00;;;;;;;19.52;66.59;101206.81;687878;28;1166;-85
2023/08/24 00:14:51;;;;;;;11.10;6.60;;;;;;;19.57;66.86;101218.28;690612;28;1048;-84
2023/08/24 00:15:13;;;;;;;9.45;6.15;;;;;;;19.48;66.72;101200.66;685095;28;1820;-85
2023/08/24 00:15:33;;;;;;;6.65;5.47;;;;;;;19.51;66.57;101202.41;685276;28;1378;-85
2023/08/24 00:15:54;;;;;;;6.75;5.55;;;;;;;19.45;66.81;101198.03;687361;28;1614;-84
2023/08/24 00:16:16;;;;;;;7.47;5.95;;;;;;;19.36;66.71;101183.03;685003;28;1521;-84
2023/08/24 00:16:37;;;;;;;8.55;6.45;;;;;;;19.34;66.69;101194.50;685345;28;1368;-85
2023/08/24 00:16:58;;;;;;;9.02;6.70;;;;;;;19.37;66.79;101194.53;681863;29;1358;-85
2023/08/24 00:17:19;;;;;;;8.70;6.70;;;;;;;19.42;66.76;101209.50;681821;28;1657;-85
2023/08/24 00:17:40;;;;;;;8.63;6.72;;;;;;;19.35;66.66;101196.28;687781;28;1363;-85
2023/08/24 00:18:00;;;;;;;11.90;7.27;;;;;;;19.38;66.83;101206.88;688196;28;1382;-84
2023/08/24 00:18:22;;;;;;;12.00;7.65;;;;;;;19.36;66.71;101204.22;686844;28;1563;-83
2023/08/24 00:18:43;;;;;;;13.10;7.77;;;;;;;19.41;66.83;101209.50;684971;28;1097;-85
2023/08/24 00:19:03;;;;;;;10.97;7.40;;;;;;;19.27;67.00;101191.91;682572;29;1215;-84
2023/08/24 00:19:24;;;;;;;11.57;7.38;;;;;;;19.29;66.77;101186.56;683392;28;1324;-85
2023/08/24 00:19:46;;;;;;;12.70;7.50;;;;;;;19.34;66.95;101195.41;685526;28;1389;-84
2023/08/24 00:20:10;;;;;;;10.85;7.07;;;;;;;19.41;66.88;101205.09;685076;28;1352;-85
2023/08/24 00:20:32;;;;;;;11.13;7.00;;;;;;;19.40;66.95;101202.44;682451;28;1395;-84
2023/08/24 00:20:53;;;;;;;11.55;7.28;;;;;;;19.28;66.95;101183.06;682969;28;1236;-84
2023/08/24 00:21:19;;;;;;;14.43;8.25;;;;;;;19.29;67.13;101176.88;688108;28;1277;-84
2023/08/24 00:21:39;;;;;;;16.45;8.75;;;;;;;19.35;67.23;101183.06;685130;28;1253;-85
2023/08/24 00:22:00;;;;;;;13.90;8.23;;;;;;;19.43;66.89;101205.09;682696;28;1130;-85
2023/08/24 00:22:21;;;;;;;11.73;7.90;;;;;;;19.44;67.09;101194.47;688112;28;1063;-84
2023/08/24 00:22:42;;;;;;;8.57;7.30;;;;;;;19.44;66.83;101186.53;685764;28;1812;-85
2023/08/24 00:23:03;;;;;;;10.02;7.40;;;;;;;19.56;67.01;101200.66;687995;28;1156;-85
2023/08/24 00:23:25;;;;;;;11.63;7.20;;;;;;;19.48;67.02;101192.72;685425;28;1070;-85
2023/08/24 00:23:45;;;;;;;11.07;7.07;;;;;;;19.40;67.01;101176.88;685584;28;1699;-85
2023/08/24 00:24:06;;;;;;;10.80;7.20;;;;;;;19.45;66.91;101185.69;688260;28;988;-85
2023/08/24 00:24:27;;;;;;;9.10;7.10;;;;;;;19.38;67.09;101176.00;685297;28;1199;-84
2023/08/24 00:24:47;;;;;;;8.98;7.32;;;;;;;19.43;66.93;101184.78;683834;28;1605;-85
2023/08/24 00:25:09;;;;;;;8.70;7.10;;;;;;;19.52;67.02;101198.88;682819;29;1052;-84
2023/08/24 00:25:31;;;;;;;9.05;6.70;;;;;;;19.42;66.89;101187.47;684980;28;1217;-85
2023/08/24 00:25:51;;;;;;;9.52;6.40;;;;;;;19.33;67.04;101180.41;681926;28;1533;-85
2023/08/24 00:26:12;;;;;;;9.80;6.97;;;;;;;19.29;66.94;101186.56;685416;28;1148;-85
2023/08/24 00:26:33;;;;;;;9.80;6.90;;;;;;;19.26;66.77;101176.00;688180;28;1286;-84
2023/08/24 00:26:54;;;;;;;9.80;6.70;;;;;;;19.31;67.00;101190.13;692744;28;1629;-85
2023/08/24 00:27:15;;;;;;;11.65;6.85;;;;;;;19.32;66.90;101197.19;682593;28;1186;-85
2023/08/24 00:27:36;;;;;;;11.88;7.30;;;;;;;19.26;67.16;101191.88;679915;29;1266;-85
2023/08/24 00:27:57;;;;;;;10.13;7.35;;;;;;;19.18;67.09;101182.19;679891;29;1391;-85
2023/08/24 00:28:18;;;;;;;8.50;7.30;;;;;;;19.12;67.03;101179.56;680913;29;1079;-85
2023/08/24 00:28:39;;;;;;;11.90;7.30;;;;;;;19.11;67.14;101177.78;683880;28;1270;-84
2023/08/24 00:29:00;;;;;;;11.20;6.83;;;;;;;19.10;67.16;101175.13;687977;28;1981;-84
2023/08/24 00:29:21;;;;;;;9.75;6.57;;;;;;;19.23;67.10;101197.19;682291;29;1415;-86
2023/08/24 00:29:43;;;;;;;7.03;6.32;;;;;;;19.00;67.22;101164.53;687946;28;1244;-85
2023/08/24 00:30:06;;;;;;;7.80;6.80;;;;;;;19.17;67.03;101192.78;688017;28;1057;-84
2023/08/24 00:30:27;;;;;;;8.77;6.68;;;;;;;19.03;67.04;101180.47;685198;28;1594;-85
2023/08/24 00:30:47;;;;;;;8.98;6.65;;;;;;;19.00;67.17;101168.97;688094;28;1301;-84
2023/08/24 00:31:08;;;;;;;10.13;6.85;;;;;;;19.04;67.05;101176.03;690730;28;1346;-85
2023/08/24 00:31:29;;;;;;;10.10;6.90;;;;;;;19.06;67.20;101181.34;687133;28;1509;-84
2023/08/24 00:31:49;;;;;;;10.77;7.10;;;;;;;19.02;67.13;101186.59;690486;28;1184;-85
2023/08/24 00:32:11;;;;;;;9.95;7.20;;;;;;;19.00;67.20;101171.63;690864;28;1142;-85
2023/08/24 00:32:34;;;;;;;10.45;7.35;;;;;;;19.07;67.39;101189.28;685127;28;1607;-85
2023/08/24 00:32:55;;;;;;;11.23;7.10;;;;;;;19.00;67.18;101185.69;687938;28;1136;-85
2023/08/24 00:33:15;;;;;;;11.73;6.90;;;;;;;19.03;67.41;101190.16;682600;28;1214;-84
2023/08/24 00:33:36;;;;;;;11.13;7.00;;;;;;;19.11;67.44;101198.94;685333;28;1505;-85
2023/08/24 00:33:57;;;;;;;9.45;7.43;;;;;;;19.06;67.38;101184.88;684053;28;1279;-85
2023/08/24 00:34:19;;;;;;;9.65;7.68;;;;;;;19.10;67.35;101197.19;678625;29;1878;-84
2023/08/24 00:34:39;;;;;;;9.90;7.77;;;;;;;19.02;67.26;101172.47;687383;28;1182;-84
2023/08/24 00:35:06;;;;;;;10.07;7.82;;;;;;;19.05;67.41;101172.50;687038;28;1326;-85
2023/08/24 00:35:26;;;;;;;11.38;7.75;;;;;;;19.13;67.45;101193.66;687136;28;1047;-85
2023/08/24 00:35:47;;;;;;;11.13;7.72;;;;;;;19.00;67.52;101167.19;686584;28;1376;-85
2023/08/24 00:36:08;;;;;;;11.30;7.25;;;;;;;19.06;67.35;101174.28;685145;28;1104;-85
2023/08/24 00:36:29;;;;;;;10.38;7.03;;;;;;;19.06;67.59;101182.22;682014;29;1194;-85
2023/08/24 00:36:50;;;;;;;9.88;6.18;;;;;;;19.03;67.43;101174.28;684907;28;1774;-84
2023/08/24 00:37:10;;;;;;;8.67;6.43;;;;;;;19.08;67.43;101183.09;685199;28;1150;-85
2023/08/24 00:37:31;;;;;;;10.05;7.07;;;;;;;19.06;67.40;101181.34;679855;29;1548;-84
2023/08/24 00:37:52;;;;;;;12.10;8.15;;;;;;;19.00;67.38;101180.41;683817;28;1202;-84
2023/08/24 00:38:13;;;;;;;13.35;8.23;;;;;;;18.97;67.44;101168.94;688003;28;1636;-85
2023/08/24 00:38:33;;;;;;;11.87;8.00;;;;;;;19.03;67.33;101174.28;685145;28;1317;-84
2023/08/24 00:38:54;;;;;;;10.57;7.80;;;;;;;19.07;67.39;101194.56;679823;29;1400;-84
2023/08/24 00:39:16;;;;;;;9.90;7.75;;;;;;;19.10;67.37;101199.84;682751;28;1215;-85
2023/08/24 00:39:37;;;;;;;9.30;7.43;;;;;;;19.05;67.47;101193.66;691708;28;1353;-85
2023/08/24 00:40:00;;;;;;;8.65;7.10;;;;;;;18.97;67.45;101176.88;692998;28;1164;-84
2023/08/24 00:40:22;;;;;;;8.05;7.07;;;;;;;18.99;67.47;101188.38;688029;28;1326;-85
2023/08/24 00:40:43;;;;;;;8.80;6.90;;;;;;;19.03;67.46;101190.16;688082;28;1372;-85
2023/08/24 00:41:04;;;;;;;9.65;7.28;;;;;;;18.99;67.55;101177.78;683499;28;1584;-84
2023/08/24 00:41:25;;;;;;;13.98;7.82;;;;;;;19.01;67.44;101181.31;682566;28;1130;-84
2023/08/24 00:41:46;;;;;;;14.30;8.52;;;;;;;19.04;67.67;101183.97;687820;28;1497;-84
2023/08/24 00:42:13;;;;;;;13.93;8.63;;;;;;;19.02;67.65;101183.06;685078;28;1561;-85
2023/08/24 00:42:33;;;;;;;10.27;8.57;;;;;;;18.98;67.62;101166.31;683230;28;1250;-85
2023/08/24 00:42:54;;;;;;;10.95;8.57;;;;;;;19.02;67.71;101186.59;687962;28;1313;-85
2023/08/24 00:43:15;;;;;;;13.13;8.80;;;;;;;18.98;67.73;101176.00;683407;28;1408;-85
2023/08/24 00:43:35;;;;;;;12.70;9.05;;;;;;;19.00;67.92;101179.53;682629;29;1222;-84
2023/08/24 00:43:57;;;;;;;13.40;9.00;;;;;;;19.07;67.98;101183.97;682625;29;1348;-85
2023/08/24 00:44:17;;;;;;;12.98;8.68;;;;;;;18.97;68.11;101175.13;682208;28;1720;-85
2023/08/24 00:44:41;;;;;;;12.55;8.05;;;;;;;19.03;68.09;101190.16;682613;28;1274;-85
2023/08/24 00:45:02;;;;;;;9.82;8.00;;;;;;;18.93;68.18;101177.78;687150;28;1348;-85
2023/08/24 00:45:23;;;;;;;10.63;8.10;;;;;;;18.98;68.20;101176.00;686635;28;1249;-85
2023/08/24 00:45:44;;;;;;;10.68;7.60;;;;;;;19.00;68.29;101183.06;688177;28;1389;-85
2023/08/24 00:46:05;;;;;;;11.45;7.82;;;;;;;18.95;67.89;101171.63;690246;28;1199;-85
2023/08/24 00:46:27;;;;;;;9.65;7.38;;;;;;;18.99;68.05;101183.94;688752;28;1847;-84
2023/08/24 00:46:48;;;;;;;8.45;6.90;;;;;;;19.02;68.08;101189.25;687835;28;1340;-85
2023/08/24 00:47:09;;;;;;;7.80;6.55;;;;;;;18.94;68.14;101168.97;685354;28;1349;-85
2023/08/24 00:47:31;;;;;;;8.15;6.60;;;;;;;18.90;67.94;101168.97;687684;28;1823;-85
2023/08/24 00:47:52;;;;;;;9.88;7.25;;;;;;;19.02;67.95;101183.97;685403;28;1182;-85
2023/08/24 00:48:13;;;;;;;10.43;7.30;;;;;;;18.93;67.96;101172.50;685379;28;997;-85
2023/08/24 00:48:33;;;;;;;11.00;7.50;;;;;;;18.98;67.88;101182.19;687930;28;1232;-85
2023/08/24 00:48:57;;;;;;;10.27;7.63;;;;;;;18.92;68.03;101171.59;688027;28;1926;-84
2023/08/24 00:49:18;;;;;;;8.98;7.43;;;;;;;18.96;67.85;101181.31;679767;29;1232;-84
2023/08/24 00:49:40;;;;;;;10.10;7.53;;;;;;;18.89;67.74;101163.69;684306;28;1114;-85
2023/08/24 00:50:01;;;;;;;11.13;7.77;;;;;;;18.94;67.65;101177.78;684827;28;1488;-85
2023/08/24 00:50:22;;;;;;;11.63;7.70;;;;;;;18.89;67.92;101166.31;687951;28;1286;-85
2023/08/24 00:50:43;;;;;;;11.20;8.00;;;;;;;18.96;67.99;101183.06;685407;28;1595;-84
2023/08/24 00:51:05;;;;;;;9.35;8.00;;;;;;;18.93;67.87;101181.28;685299;28;1002;-85
2023/08/24 00:51:26;;;;;;;11.00;8.05;;;;;;;18.95;67.88;101176.00;681489;28;1265;-84
2023/08/24 00:51:47;;;;;;;12.20;8.53;;;;;;;18.85;67.96;101157.50;682869;28;1639;-85
2023/08/24 00:52:10;;;;;;;13.07;8.77;;;;;;;18.92;68.12;101174.25;682654;29;1294;-85
2023/08/24 00:52:31;;;;;;;11.15;8.27;;;;;;;18.82;67.94;101146.06;682370;28;1253;-85
2023/08/24 00:52:52;;;;;;;9.48;7.35;;;;;;;18.79;68.26;101149.56;682456;28;1251;-84
2023/08/24 00:53:13;;;;;;;9.40;7.88;;;;;;;18.89;68.15;101166.31;685418;28;1130;-84
2023/08/24 00:53:36;;;;;;;10.27;8.55;;;;;;;18.94;68.05;101171.59;686944;28;1216;-85
2023/08/24 00:53:57;;;;;;;12.23;9.15;;;;;;;18.82;68.21;101154.88;685175;28;1765;-85
2023/08/24 00:54:18;;;;;;;11.32;8.52;;;;;;;18.85;68.11;101154.88;682620;29;1140;-85
2023/08/24 00:54:41;;;;;;;11.50;8.18;;;;;;;18.90;68.06;101166.34;681041;28;1256;-85
2023/08/24 00:55:01;;;;;;;10.43;8.40;;;;;;;18.96;68.16;101177.78;681673;28;1495;-85
2023/08/24 00:55:22;;;;;;;10.98;8.40;;;;;;;18.89;68.28;101166.31;684561;28;1790;-84
2023/08/24 00:55:43;;;;;;;10.45;8.75;;;;;;;18.88;68.17;101168.06;686753;28;1378;-85
2023/08/24 00:56:04;;;;;;;9.85;7.90;;;;;;;18.95;67.97;101181.31;685289;28;1299;-85
2023/08/24 00:56:25;;;;;;;9.27;7.97;;;;;;;18.75;67.92;101151.34;685056;28;1347;-85
2023/08/24 00:56:46;;;;;;;10.00;7.70;;;;;;;18.80;68.02;101153.97;688867;28;1278;-85
2023/08/24 00:57:07;;;;;;;13.05;8.18;;;;;;;18.78;67.88;101158.41;687613;28;1611;-85
2023/08/24 00:57:28;;;;;;;14.15;8.18;;;;;;;18.87;67.99;101168.97;688018;28;1216;-85
2023/08/24 00:57:50;;;;;;;16.33;8.13;;;;;;;18.90;67.88;101176.03;687925;28;1172;-85
2023/08/24 00:58:13;;;;;;;16.00;8.15;;;;;;;18.80;68.10;101161.03;688017;28;1433;-85
2023/08/24 00:58:34;;;;;;;14.55;8.20;;;;;;;18.81;67.94;101157.50;685490;28;1217;-84
2023/08/24 00:58:55;;;;;;;10.05;8.45;;;;;;;18.80;67.99;101153.13;682692;29;1220;-85
2023/08/24 00:59:15;;;;;;;10.52;8.65;;;;;;;18.85;67.90;101160.16;687680;28;1239;-84
2023/08/24 00:59:36;;;;;;;13.80;8.80;;;;;;;18.75;67.83;101142.53;687878;28;1225;-85
2023/08/24 01:00:05;;;;;;;14.05;8.88;;;;;;;18.89;67.64;101167.19;687830;28;1109;-85
2023/08/24 01:00:26;;;;;;;13.85;8.80;;;;;;;18.72;67.57;101137.22;679530;29;1805;-85
2023/08/24 01:00:49;;;;;;;10.73;8.40;;;;;;;18.76;67.74;101150.44;684651;28;1217;-84
2023/08/24 01:01:09;;;;;;;11.25;8.73;;;;;;;18.82;67.79;101159.28;685516;28;1374;-85
2023/08/24 01:01:30;;;;;;;11.43;8.70;;;;;;;18.70;67.83;101137.25;686317;28;1188;-85
2023/08/24 01:01:52;;;;;;;11.77;8.60;;;;;;;18.72;67.76;101145.16;682342;28;1430;-84
2023/08/24 01:02:13;;;;;;;10.90;8.05;;;;;;;18.85;67.75;101170.72;680041;29;1321;-85
2023/08/24 01:02:33;;;;;;;10.47;8.00;;;;;;;18.77;67.76;101149.56;686916;28;1382;-85
2023/08/24 01:02:54;;;;;;;11.17;8.87;;;;;;;18.85;68.00;101169.84;686731;28;1694;-84
2023/08/24 01:03:15;;;;;;;20.08;9.20;;;;;;;18.80;67.79;101159.25;689549;28;1121;-84
2023/08/24 01:03:37;;;;;;;21.20;9.23;;;;;;;18.75;67.92;101151.34;686794;28;1621;-84
2023/08/24 01:03:59;;;;;;;21.65;9.07;;;;;;;18.77;67.96;101151.34;690043;28;1381;-85
2023/08/24 01:04:20;;;;;;;15.60;9.50;;;;;;;18.81;67.93;101161.03;690488;28;1631;-85
2023/08/24 01:04:42;;;;;;;16.10;9.23;;;;;;;18.81;67.79;101163.66;687988;28;1061;-84
2023/08/24 01:05:06;;;;;;;14.45;8.98;;;;;;;18.84;67.78;101171.63;677436;29;1066;-85
2023/08/24 01:05:28;;;;;;;13.05;9.00;;;;;;;18.76;68.04;101160.16;682475;29;1391;-85
2023/08/24 01:05:49;;;;;;;13.15;8.90;;;;;;;18.79;67.99;101162.78;682096;28;1199;-85
2023/08/24 01:06:09;;;;;;;14.25;9.15;;;;;;;18.71;67.99;101159.28;688657;28;1152;-85
2023/08/24 01:06:31;;;;;;;12.70;8.85;;;;;;;18.71;68.08;101159.28;684605;28;1313;-85
2023/08/24 01:06:52;;;;;;;11.65;9.27;;;;;;;18.68;68.14;101151.34;682425;28;1700;-84
2023/08/24 01:07:15;;;;;;;11.60;9.40;;;;;;;18.80;68.21;101179.56;677854;29;1363;-85
2023/08/24 01:07:39;;;;;;;11.95;9.23;;;;;;;18.66;68.25;101153.09;687187;28;1296;-84
2023/08/24 01:08:01;;;;;;;12.02;8.43;;;;;;;18.72;68.07;101168.97;686686;28;1726;-85
2023/08/24 01:08:24;;;;;;;11.60;7.97;;;;;;;18.62;68.06;101153.09;687557;28;1341;-85
2023/08/24 01:08:45;;;;;;;11.73;7.93;;;;;;;18.68;68.19;101159.28;690786;28;1128;-85
2023/08/24 01:09:07;;;;;;;10.13;7.80;;;;;;;18.63;68.06;101159.28;688132;28;1906;-85
2023/08/24 01:09:27;;;;;;;10.10;7.90;;;;;;;18.62;68.18;101155.75;682192;29;1396;-86
2023/08/24 01:09:48;;;;;;;11.40;8.25;;;;;;;18.71;67.89;101169.84;685379;28;1133;-84
2023/08/24 01:10:10;;;;;;;13.33;8.47;;;;;;;18.61;68.12;101156.63;681535;29;1569;-84
2023/08/24 01:10:44;;;;;;;13.07;8.65;;;;;;;18.58;67.82;101161.94;681487;28;1439;-84
2023/08/24 01:11:07;;;;;;;11.80;9.10;;;;;;;18.74;68.26;101193.63;679675;29;1862;-85
2023/08/24 01:11:45;;;;;;;12.07;9.05;;;;;;;18.72;68.08;101188.34;689951;28;1220;-85
2023/08/24 01:12:32;;;;;;;12.25;8.60;;;;;;;18.70;68.21;101186.59;688019;28;1406;-85
2023/08/24 01:13:08;;;;;;;11.88;8.63;;;;;;;18.48;68.37;101152.19;690713;28;964;-85
2023/08/24 01:13:45;;;;;;;9.85;8.40;;;;;;;18.65;68.46;101176.00;684728;28;1501;-85
2023/08/24 01:14:30;;;;;;;12.27;8.90;;;;;;;18.49;68.28;101143.38;690344;28;985;-85
2023/08/24 01:15:14;;;;;;;13.18;9.15;;;;;;;18.72;68.34;101184.81;690163;28;1108;-85
2023/08/24 01:15:47;;;;;;;12.02;9.10;;;;;;;18.70;68.39;101176.00;687523;28;1575;-85
2023/08/24 01:16:20;;;;;;;14.50;9.18;;;;;;;18.64;68.45;101168.97;684807;28;1042;-84
2023/08/24 01:16:45;;;;;;;12.27;8.38;;;;;;;18.57;68.47;101156.63;686287;28;1434;-85
2023/08/24 01:17:11;;;;;;;9.93;7.85;;;;;;;18.53;68.35;101147.81;690761;28;1163;-85
2023/08/24 01:17:32;;;;;;;14.32;7.80;;;;;;;18.53;68.10;101153.09;690427;28;1318;-84
2023/08/24 01:17:58;;;;;;;15.20;8.15;;;;;;;18.49;68.32;101151.31;684121;28;1334;-85
2023/08/24 01:18:22;;;;;;;11.38;8.68;;;;;;;18.56;68.41;101162.81;682462;29;1087;-85
2023/08/24 01:18:44;;;;;;;10.77;8.80;;;;;;;18.48;68.27;101158.38;683715;28;1493;-85
2023/08/24 01:19:06;;;;;;;10.88;9.27;;;;;;;18.57;68.43;101175.13;685204;28;1197;-85
2023/08/24 01:19:41;;;;;;;11.77;9.50;;;;;;;18.54;68.39;101173.34;685099;28;1123;-85
2023/08/24 01:20:05;;;;;;;13.35;10.07;;;;;;;18.59;68.41;101181.28;682500;29;1184;-85
2023/08/24 01:20:26;;;;;;;14.18;9.65;;;;;;;18.39;68.31;101150.44;682561;29;1196;-85
2023/08/24 01:20:49;;;;;;;15.65;9.93;;;;;;;18.53;68.49;101173.34;681897;28;1578;-85
2023/08/24 01:21:12;;;;;;;13.27;9.35;;;;;;;18.46;68.27;101167.19;685355;28;1350;-85
2023/08/24 01:21:33;;;;;;;11.48;9.20;;;;;;;18.47;68.36;101168.94;682555;29;1265;-84
2023/08/24 01:21:55;;;;;;;10.75;9.02;;;;;;;18.40;68.14;101156.59;682188;29;1731;-85
2023/08/24 01:22:25;;;;;;;11.43;9.20;;;;;;;18.53;68.17;101174.25;682517;28;1285;-85
2023/08/24 01:23:14;;;;;;;13.07;9.75;;;;;;;18.44;68.42;101163.66;692838;28;1328;-85
2023/08/24 01:23:53;;;;;;;13.27;9.52;;;;;;;18.50;68.56;101171.56;692663;28;1301;-85
2023/08/24 01:24:26;;;;;;;10.10;8.55;;;;;;;18.32;68.51;101149.53;684314;28;1650;-84
2023/08/24 01:25:10;;;;;;;9.23;7.90;;;;;;;18.36;68.74;101139.84;690248;28;1131;-85
2023/08/24 01:25:34;;;;;;;11.13;8.02;;;;;;;18.48;68.86;101168.06;677066;29;1282;-83
2023/08/24 01:26:27;;;;;;;12.02;8.70;;;;;;;18.38;68.47;101147.78;676848;29;1385;-82
2023/08/24 01:26:49;;;;;;;12.35;9.35;;;;;;;18.34;68.61;101149.53;676672;29;1347;-83
2023/08/24 01:27:11;;;;;;;10.93;8.70;;;;;;;18.37;68.54;101157.47;679443;29;1280;-82
2023/08/24 01:27:34;;;;;;;12.82;9.10;;;;;;;18.47;68.71;101168.94;672660;29;1398;-84
2023/08/24 01:27:56;;;;;;;12.20;9.40;;;;;;;18.48;68.58;101165.41;684387;28;1084;-84
2023/08/24 01:28:18;;;;;;;11.77;9.43;;;;;;;18.44;68.62;101166.31;687736;28;1832;-84
2023/08/24 01:28:41;;;;;;;9.75;8.75;;;;;;;18.41;68.64;101167.19;682883;28;1381;-84
2023/08/24 01:29:04;;;;;;;9.40;8.40;;;;;;;18.42;68.79;101168.03;682388;29;1912;-84
2023/08/24 01:29:25;;;;;;;10.20;8.63;;;;;;;18.43;68.97;101173.34;682336;29;1545;-84
2023/08/24 01:29:47;;;;;;;9.75;8.27;;;;;;;18.39;68.63;101166.31;687586;28;1205;-84
2023/08/24 01:30:08;;;;;;;9.13;7.97;;;;;;;18.41;68.66;101168.91;685250;28;1234;-84
2023/08/24 01:30:30;;;;;;;8.88;7.65;;;;;;;18.40;68.59;101183.03;682109;28;1567;-84
2023/08/24 01:30:51;;;;;;;9.38;8.40;;;;;;;18.27;68.64;101151.31;681899;29;1226;-85
2023/08/24 01:31:18;;;;;;;11.85;9.07;;;;;;;18.45;68.78;101191.84;687562;28;1254;-84
2023/08/24 01:31:39;;;;;;;15.10;9.93;;;;;;;18.40;68.78;101183.03;690411;28;1262;-84
2023/08/24 01:32:00;;;;;;;14.90;9.95;;;;;;;18.33;68.69;101169.78;685338;28;1268;-84
2023/08/24 01:32:21;;;;;;;14.70;9.50;;;;;;;18.26;68.71;101162.72;687813;28;1110;-84
2023/08/24 01:32:42;;;;;;;13.60;9.60;;;;;;;18.34;68.79;101175.97;689601;28;1278;-84
2023/08/24 01:33:11;;;;;;;13.00;10.18;;;;;;;18.33;68.73;101172.44;685152;28;1155;-85
2023/08/24 01:33:32;;;;;;;13.52;11.40;;;;;;;18.30;68.95;101158.34;679969;28;1105;-84
2023/08/24 01:33:53;;;;;;;14.35;11.90;;;;;;;18.45;68.97;101186.56;693210;28;1866;-84
2023/08/24 01:34:15;;;;;;;14.68;11.70;;;;;;;18.31;68.69;101168.91;691050;28;1451;-83
2023/08/24 01:34:38;;;;;;;14.53;11.50;;;;;;;18.37;69.01;101175.97;686957;28;1333;-85
2023/08/24 01:35:01;;;;;;;13.40;11.25;;;;;;;18.36;68.94;101177.75;683899;28;1301;-85
2023/08/24 01:35:21;;;;;;;12.80;11.40;;;;;;;18.39;69.08;101170.69;682128;28;943;-84
2023/08/24 01:35:42;;;;;;;12.23;10.85;;;;;;;18.32;68.98;101170.66;684457;28;910;-84
2023/08/24 01:36:03;;;;;;;12.23;10.48;;;;;;;18.32;68.98;101164.53;684901;28;1802;-84
2023/08/24 01:36:25;;;;;;;13.57;10.80;;;;;;;18.35;69.08;101170.69;685169;28;960;-84
2023/08/24 01:36:47;;;;;;;15.82;11.43;;;;;;;18.31;69.17;101158.34;684453;28;1266;-84
2023/08/24 01:37:07;;;;;;;15.93;11.17;;;;;;;18.33;69.17;101172.44;682412;29;1112;-84
2023/08/24 01:37:29;;;;;;;15.52;11.20;;;;;;;18.29;69.20;101157.47;682256;28;1461;-84
2023/08/24 01:37:50;;;;;;;13.95;11.25;;;;;;;18.34;69.20;101168.91;682486;28;1277;-84
2023/08/24 01:38:13;;;;;;;13.73;11.53;;;;;;;18.35;69.32;101170.69;680387;29;1606;-84
2023/08/24 01:38:33;;;;;;;12.85;11.40;;;;;;;18.35;69.28;101165.41;682583;28;1297;-84
2023/08/24 01:39:06;;;;;;;13.57;11.83;;;;;;;18.38;69.37;101164.50;682568;29;1167;-85
2023/08/24 01:39:42;;;;;;;14.48;11.90;;;;;;;18.44;69.41;101168.94;682085;29;1352;-84
2023/08/24 01:40:12;;;;;;;15.10;11.55;;;;;;;18.50;69.34;101185.69;684842;28;1238;-84
2023/08/24 01:40:44;;;;;;;16.13;11.30;;;;;;;18.48;69.32;101175.97;684665;28;1603;-83
2023/08/24 01:41:26;;;;;;;19.75;11.07;;;;;;;18.51;69.40;101186.59;690246;28;1570;-84
2023/08/24 01:41:52;;;;;;;13.63;9.95;;;;;;;18.44;69.30;101168.94;685423;28;1080;-84
2023/08/24 01:42:20;;;;;;;11.25;9.63;;;;;;;18.44;69.37;101175.09;686171;28;1225;-84
2023/08/24 01:43:03;;;;;;;10.70;9.30;;;;;;;18.30;69.33;101156.59;683158;28;1375;-84
2023/08/24 01:45:05;;;;;;;15.48;11.30;;;;;;;18.35;69.25;101165.41;682711;28;1075;-84
2023/08/24 01:45:30;;;;;;;15.50;11.20;;;;;;;18.35;69.26;101170.69;684428;28;1575;-83
2023/08/24 01:45:51;;;;;;;13.45;10.75;;;;;;;18.38;69.35;101171.56;683931;28;1639;-82
2023/08/24 01:46:17;;;;;;;12.43;10.63;;;;;;;18.32;69.45;101159.25;684943;28;1227;-81
2023/08/24 01:46:40;;;;;;;15.05;11.15;;;;;;;18.42;69.12;101179.50;686268;28;1201;-84
2023/08/24 01:47:05;;;;;;;18.60;11.27;;;;;;;18.36;69.30;101172.47;682064;28;1620;-84
2023/08/24 01:47:27;;;;;;;17.35;11.10;;;;;;;18.40;69.32;101175.09;677010;29;1046;-84
2023/08/24 01:47:49;;;;;;;18.80;11.70;;;;;;;18.30;69.37;101159.22;684207;28;1387;-83
2023/08/24 01:48:10;;;;;;;17.77;11.77;;;;;;;18.31;69.43;101157.47;678407;29;1432;-84
2023/08/24 01:48:31;;;;;;;14.35;11.07;;;;;;;18.42;69.40;101179.50;679489;29;1661;-83
2023/08/24 01:48:55;;;;;;;13.23;10.57;;;;;;;18.30;69.52;101156.59;690676;28;1914;-85
2023/08/24 01:49:18;;;;;;;12.10;10.20;;;;;;;18.39;69.63;101171.59;687753;28;1244;-85
2023/08/24 01:49:41;;;;;;;12.05;10.13;;;;;;;18.40;69.44;101178.63;685410;28;1139;-84